createdAt,value
2016-08-19T00:03:27.792Z,1
2016-08-19T00:14:29.007Z,0
2016-08-19T00:24:12.591Z,0
2016-08-19T00:42:27.988Z,0
2016-08-19T00:50:11.252Z,0
2016-08-19T01:00:32.743Z,0
2016-08-19T01:06:34.541Z,0
2016-08-19T01:12:34.459Z,0
2016-08-19T01:26:31.899Z,0
2016-08-19T01:32:33.793Z,0
2016-08-19T01:38:35.156Z,0
2016-08-19T01:46:14.761Z,0
2016-08-19T01:52:17.912Z,0
2016-08-19T02:04:14.395Z,0
2016-08-19T02:10:21.017Z,0
2016-08-19T02:19:38.898Z,0
2016-08-19T02:29:16.697Z,0
2016-08-19T02:35:18.279Z,0
2016-08-19T02:46:19.178Z,0
2016-08-19T02:52:20.658Z,0
2016-08-19T02:58:18.576Z,0
2016-08-19T03:10:41.492Z,0
2016-08-19T03:16:44.318Z,0
2016-08-19T03:22:42.030Z,0
2016-08-19T03:28:43.755Z,0
2016-08-19T03:34:42.118Z,0
2016-08-19T03:40:39.755Z,0
2016-08-19T03:49:19.046Z,0
2016-08-19T03:59:43.905Z,0
2016-08-19T04:05:43.745Z,0
2016-08-19T04:11:47.393Z,0
2016-08-19T04:17:43.249Z,0
2016-08-19T04:23:44.355Z,0
2016-08-19T04:29:45.170Z,0
2016-08-19T04:35:45.869Z,0
2016-08-19T04:41:43.685Z,0
2016-08-19T04:47:47.606Z,0
2016-08-19T04:53:44.926Z,0
2016-08-19T04:59:44.949Z,0
2016-08-19T05:05:48.955Z,0
2016-08-19T05:11:46.290Z,0
2016-08-19T05:17:46.625Z,0
2016-08-19T05:23:47.251Z,0
2016-08-19T05:30:01.199Z,0
2016-08-19T05:35:52.278Z,0
2016-08-19T05:41:49.033Z,0
2016-08-19T05:47:49.056Z,0
2016-08-19T05:53:53.471Z,0
2016-08-19T05:59:53.655Z,0
2016-08-19T06:05:50.930Z,0
2016-08-19T06:11:50.796Z,0
2016-08-19T06:17:51.806Z,0
2016-08-19T06:23:56.329Z,0
2016-08-19T06:29:52.507Z,0
2016-08-19T06:35:53.135Z,0
2016-08-19T06:41:56.628Z,0
2016-08-19T06:47:57.431Z,0
2016-08-19T06:53:57.367Z,0
2016-08-19T07:19:10.930Z,0
2016-08-19T07:25:15.415Z,0
2016-08-19T07:31:16.477Z,0
2016-08-19T07:37:16.244Z,0
2016-08-19T07:43:17.370Z,0
2016-08-19T07:49:18.054Z,0
2016-08-19T07:55:18.656Z,0
2016-08-19T08:01:19.015Z,0
2016-08-19T08:07:19.297Z,0
2016-08-19T08:13:19.149Z,0
2016-08-19T08:19:20.209Z,0
2016-08-19T08:25:21.375Z,0
2016-08-19T08:31:20.371Z,0
2016-08-19T08:37:20.032Z,0
2016-08-19T08:43:22.449Z,0
2016-08-19T08:49:22.354Z,0
2016-08-19T08:55:26.469Z,0
2016-08-19T09:01:23.696Z,0
2016-08-19T09:07:23.336Z,0
2016-08-19T09:13:23.032Z,0
2016-08-19T09:19:23.527Z,0
2016-08-19T09:25:24.831Z,0
2016-08-19T09:31:24.136Z,0
2016-08-19T09:37:25.171Z,0
2016-08-19T09:43:26.259Z,0
2016-08-19T09:49:27.093Z,0
2016-08-19T09:55:28.090Z,0
2016-08-19T10:01:30.069Z,0
2016-08-19T10:07:29.279Z,0
2016-08-19T10:13:29.458Z,0
2016-08-19T10:19:30.030Z,0
2016-08-19T10:25:30.955Z,0
2016-08-19T10:31:30.815Z,0
2016-08-19T10:37:30.727Z,0
2016-08-19T10:43:31.689Z,0
2016-08-19T10:51:29.895Z,0
2016-08-19T10:57:31.736Z,0
2016-08-19T11:03:32.442Z,0
2016-08-19T11:09:32.184Z,0
2016-08-19T11:15:32.924Z,0
2016-08-19T11:21:33.218Z,0
2016-08-19T11:27:35.340Z,0
2016-08-19T11:33:36.525Z,0
2016-08-19T11:39:35.238Z,0
2016-08-19T11:45:36.095Z,1
2016-08-19T11:51:39.438Z,1
2016-08-19T11:57:37.238Z,2
2016-08-19T12:03:38.515Z,2
2016-08-19T12:09:38.981Z,2
2016-08-19T12:15:38.084Z,3
2016-08-19T12:21:38.664Z,3
2016-08-19T12:27:38.121Z,4
2016-08-19T12:33:39.415Z,4
2016-08-19T12:39:38.999Z,4
2016-08-19T12:45:39.260Z,4
2016-08-19T12:51:40.221Z,5
2016-08-19T12:57:43.245Z,5
2016-08-19T13:03:40.606Z,6
2016-08-19T13:09:41.398Z,6
2016-08-19T13:15:41.435Z,6
2016-08-19T13:21:42.419Z,6
2016-08-19T13:27:41.982Z,6
2016-08-19T13:33:43.163Z,6
2016-08-19T13:39:42.376Z,6
2016-08-19T13:45:43.120Z,6
2016-08-19T13:51:45.884Z,6
2016-08-19T13:57:39.722Z,6
2016-08-19T14:03:40.863Z,6
2016-08-19T14:09:45.763Z,6
2016-08-19T14:15:49.724Z,7
2016-08-19T14:21:46.383Z,7
2016-08-19T14:27:47.928Z,7
2016-08-19T14:33:51.323Z,7
2016-08-19T14:39:48.828Z,7
2016-08-19T14:45:48.265Z,7
2016-08-19T14:51:49.465Z,7
2016-08-19T14:57:47.406Z,7
2016-08-19T15:03:50.931Z,6
2016-08-19T15:09:51.730Z,6
2016-08-19T15:15:51.304Z,5
2016-08-19T15:21:49.168Z,5
2016-08-19T15:27:49.471Z,6
2016-08-19T15:33:54.448Z,6
2016-08-19T15:39:52.624Z,6
2016-08-19T15:45:51.822Z,6
2016-08-19T15:51:53.386Z,6
2016-08-19T15:57:53.945Z,7
2016-08-19T16:03:54.371Z,7
